createdAt,value
2018-04-22T00:00:22.288Z,5.90
2018-04-22T00:02:49.852Z,5.90
2018-04-22T00:05:17.513Z,6.10
2018-04-22T00:07:45.060Z,6.10
2018-04-22T00:10:12.615Z,6.20
2018-04-22T00:12:40.193Z,6.20
2018-04-22T00:15:07.740Z,6.10
2018-04-22T00:17:35.289Z,6.10
2018-04-22T00:20:02.840Z,6.10
2018-04-22T00:22:30.389Z,6.10
2018-04-22T00:24:57.970Z,6.10
2018-04-22T00:27:25.517Z,6.10
2018-04-22T00:29:53.064Z,6.10
2018-04-22T00:32:20.616Z,6.00
2018-04-22T00:34:48.164Z,6.00
2018-04-22T00:37:16.550Z,5.90
2018-04-22T00:39:44.096Z,5.90
2018-04-22T00:42:11.644Z,5.90
2018-04-22T00:44:39.196Z,5.90
2018-04-22T00:47:07.512Z,5.80
2018-04-22T00:49:35.088Z,5.80
2018-04-22T00:52:02.647Z,5.80
2018-04-22T00:54:30.198Z,5.80
2018-04-22T00:56:57.740Z,5.80
2018-04-22T00:59:25.288Z,5.80
2018-04-22T01:01:52.864Z,6.10
2018-04-22T01:04:20.416Z,6.10
2018-04-22T01:06:47.964Z,6.10
2018-04-22T01:09:15.508Z,6.20
2018-04-22T01:11:43.053Z,6.10
2018-04-22T01:14:11.388Z,6.00
2018-04-22T01:16:38.944Z,6.00
2018-04-22T01:19:06.516Z,5.90
2018-04-22T01:21:34.068Z,5.80
2018-04-22T01:24:01.618Z,5.80
2018-04-22T01:26:29.188Z,5.80
2018-04-22T01:28:56.789Z,5.80
2018-04-22T01:31:25.129Z,5.80
2018-04-22T01:33:52.696Z,5.80
2018-04-22T01:36:20.256Z,5.70
2018-04-22T01:38:47.805Z,5.70
2018-04-22T01:41:15.352Z,5.60
2018-04-22T01:43:42.940Z,5.60
2018-04-22T01:46:10.484Z,5.50
2018-04-22T01:48:38.044Z,5.60
2018-04-22T01:51:05.606Z,5.60
2018-04-22T01:53:33.179Z,5.50
2018-04-22T01:56:01.520Z,5.10
2018-04-22T01:58:29.074Z,5.10
2018-04-22T02:00:56.621Z,5.00
2018-04-22T02:03:24.179Z,5.10
2018-04-22T02:05:51.730Z,5.10
2018-04-22T02:08:19.305Z,5.00
2018-04-22T02:10:46.848Z,5.00
2018-04-22T02:13:14.395Z,4.80
2018-04-22T02:15:41.969Z,4.70
2018-04-22T02:18:09.524Z,4.70
2018-04-22T02:20:37.101Z,4.70
2018-04-22T02:23:04.652Z,4.70
2018-04-22T02:25:32.201Z,4.70
2018-04-22T02:27:59.756Z,4.70
2018-04-22T02:30:27.303Z,4.70
2018-04-22T02:32:54.868Z,4.70
2018-04-22T02:35:22.596Z,4.60
2018-04-22T02:37:50.145Z,4.70
2018-04-22T02:40:18.668Z,4.70
2018-04-22T02:42:46.216Z,4.60
2018-04-22T02:45:13.808Z,4.60
2018-04-22T02:47:41.356Z,4.60
2018-04-22T02:50:08.904Z,4.60
2018-04-22T02:52:36.455Z,4.60
2018-04-22T02:55:04.000Z,4.60
2018-04-22T02:57:31.570Z,4.60
2018-04-22T02:59:59.317Z,4.60
2018-04-22T03:02:26.940Z,4.50
2018-04-22T03:04:54.489Z,4.50
2018-04-22T03:07:22.032Z,4.40
2018-04-22T03:09:49.596Z,4.40
2018-04-22T03:12:17.328Z,4.50
2018-04-22T03:14:44.880Z,4.40
2018-04-22T03:17:12.428Z,4.40
2018-04-22T03:19:39.976Z,4.40
2018-04-22T03:22:07.558Z,4.40
2018-04-22T03:24:35.115Z,4.40
2018-04-22T03:27:02.661Z,4.40
2018-04-22T03:29:30.214Z,4.40
2018-04-22T03:31:57.760Z,4.30
2018-04-22T03:34:25.326Z,4.30
2018-04-22T03:36:52.872Z,4.30
2018-04-22T03:39:21.196Z,4.40
2018-04-22T03:41:48.744Z,4.30
2018-04-22T03:44:16.287Z,4.40
2018-04-22T03:46:43.857Z,4.40
2018-04-22T03:49:11.409Z,4.40
2018-04-22T03:51:38.956Z,4.30
2018-04-22T03:54:06.504Z,4.30
2018-04-22T03:56:34.056Z,4.30
2018-04-22T03:59:01.631Z,4.30
2018-04-22T04:01:29.188Z,4.40
2018-04-22T04:03:56.735Z,4.40
2018-04-22T04:06:24.312Z,4.40
2018-04-22T04:08:51.868Z,4.50
2018-04-22T04:11:19.412Z,4.50
2018-04-22T04:13:46.989Z,4.60
2018-04-22T04:16:14.532Z,4.60
2018-04-22T04:19:02.697Z,4.60
2018-04-22T04:21:41.976Z,4.60
2018-04-22T04:27:45.032Z,4.80
2018-04-22T04:30:12.588Z,4.80
2018-04-22T04:32:40.141Z,5.10
2018-04-22T04:35:07.720Z,5.30
2018-04-22T04:37:35.291Z,5.60
2018-04-22T04:40:02.844Z,6.00
2018-04-22T04:42:30.392Z,6.20
2018-04-22T04:44:57.935Z,6.40
2018-04-22T04:47:25.515Z,6.40
2018-04-22T04:49:53.068Z,6.30
2018-04-22T04:52:20.620Z,6.20
2018-04-22T04:54:48.187Z,6.10
2018-04-22T04:57:15.782Z,6.20
2018-04-22T04:59:44.131Z,6.20
2018-04-22T05:02:11.676Z,6.20
2018-04-22T05:04:39.224Z,6.30
2018-04-22T05:07:07.776Z,6.50
2018-04-22T05:09:35.329Z,6.80
2018-04-22T05:12:02.904Z,6.70
2018-04-22T05:14:30.447Z,6.80
2018-04-22T05:16:58.013Z,6.90
2018-04-22T05:19:25.596Z,6.90
2018-04-22T05:21:53.160Z,7.00
2018-04-22T05:24:20.738Z,7.10
2018-04-22T05:26:48.294Z,6.90
2018-04-22T05:29:15.843Z,6.90
2018-04-22T05:31:43.397Z,6.80
2018-04-22T05:34:10.956Z,6.90
2018-04-22T05:36:38.536Z,6.90
2018-04-22T05:39:06.087Z,6.90
2018-04-22T05:41:33.644Z,6.90
2018-04-22T05:44:01.195Z,7.00
2018-04-22T05:46:28.756Z,7.10
2018-04-22T05:48:56.336Z,7.10
2018-04-22T05:51:24.660Z,7.30
2018-04-22T05:53:52.213Z,7.30
2018-04-22T05:56:19.772Z,7.30
2018-04-22T05:58:47.332Z,7.40
2018-04-22T06:01:14.904Z,7.70
2018-04-22T06:03:42.459Z,7.80
2018-04-22T06:06:10.665Z,8.00
2018-04-22T06:08:38.265Z,8.20
2018-04-22T06:11:05.787Z,8.40
2018-04-22T06:13:33.364Z,8.60
2018-04-22T06:16:01.676Z,9.50
2018-04-22T06:18:29.229Z,9.50
2018-04-22T06:20:56.796Z,10.20
2018-04-22T06:23:24.356Z,10.20
2018-04-22T06:25:51.944Z,10.20
2018-04-22T06:28:19.530Z,10.60
2018-04-22T06:30:47.096Z,10.80
2018-04-22T06:33:14.657Z,10.70
2018-04-22T06:35:42.218Z,11.00
2018-04-22T06:38:09.813Z,11.10
2018-04-22T06:40:37.368Z,11.10
2018-04-22T06:43:04.921Z,11.20
2018-04-22T06:45:32.472Z,11.90
2018-04-22T06:48:00.032Z,11.70
2018-04-22T06:50:27.604Z,12.00
2018-04-22T06:52:55.172Z,12.30
2018-04-22T06:55:22.751Z,12.60
2018-04-22T06:57:50.310Z,12.50
2018-04-22T07:00:17.898Z,11.90
2018-04-22T07:02:45.480Z,12.40
2018-04-22T07:05:13.051Z,12.90
2018-04-22T07:07:40.613Z,13.70
2018-04-22T07:10:08.176Z,13.60
2018-04-22T07:12:35.762Z,13.70
2018-04-22T07:15:04.113Z,13.10
2018-04-22T07:17:31.668Z,13.10
2018-04-22T07:19:59.223Z,13.00
2018-04-22T07:22:26.777Z,13.10
2018-04-22T07:24:54.338Z,13.20
2018-04-22T07:27:21.923Z,13.10
2018-04-22T07:29:49.505Z,12.70
2018-04-22T07:32:18.760Z,13.30
2018-04-22T07:34:46.312Z,13.30
2018-04-22T07:37:13.878Z,13.80
2018-04-22T07:39:41.453Z,12.80
2018-04-22T07:42:09.004Z,13.10
2018-04-22T07:44:36.564Z,12.70
2018-04-22T07:47:04.120Z,13.70
2018-04-22T07:49:31.746Z,13.40
2018-04-22T07:51:59.331Z,13.60
2018-04-22T07:54:26.888Z,13.70
2018-04-22T07:56:54.448Z,13.20
2018-04-22T07:59:22.004Z,12.90
2018-04-22T08:01:49.555Z,12.60
2018-04-22T08:04:17.188Z,13.00
2018-04-22T08:06:44.833Z,12.70
2018-04-22T08:09:12.394Z,13.30
2018-04-22T08:11:39.949Z,13.10
2018-04-22T08:14:07.510Z,12.80
2018-04-22T08:16:35.089Z,12.80
2018-04-22T08:19:02.640Z,13.20
2018-04-22T08:21:30.203Z,13.70
2018-04-22T08:23:57.757Z,13.60
2018-04-22T08:26:25.316Z,13.30
2018-04-22T08:28:52.896Z,13.70
2018-04-22T08:31:20.449Z,14.00
2018-04-22T08:33:48.027Z,14.70
2018-04-22T08:36:15.587Z,15.10
2018-04-22T08:38:43.149Z,14.50
2018-04-22T08:41:10.728Z,14.80
2018-04-22T08:43:38.284Z,15.30
2018-04-22T08:46:05.845Z,14.50
2018-04-22T08:48:34.192Z,13.60
2018-04-22T08:51:01.741Z,13.60
2018-04-22T08:53:29.294Z,14.20
2018-04-22T08:55:56.883Z,14.10
2018-04-22T08:58:25.202Z,13.70
2018-04-22T09:00:52.756Z,13.70
2018-04-22T09:03:20.336Z,14.10
2018-04-22T09:05:47.889Z,14.70
2018-04-22T09:08:15.452Z,14.60
2018-04-22T09:10:43.008Z,14.90
2018-04-22T09:13:10.557Z,14.90
2018-04-22T09:15:38.124Z,15.00
2018-04-22T09:18:05.676Z,15.30
2018-04-22T09:20:33.240Z,15.80
2018-04-22T09:23:00.824Z,15.00
2018-04-22T09:25:28.382Z,14.70
2018-04-22T09:27:55.993Z,14.40
2018-04-22T09:30:24.288Z,15.10
2018-04-22T09:32:51.875Z,15.00
2018-04-22T09:35:19.452Z,14.70
2018-04-22T09:37:47.008Z,14.50
2018-04-22T09:40:15.329Z,15.00
2018-04-22T09:42:42.882Z,14.90
2018-04-22T09:45:10.428Z,16.20
2018-04-22T09:47:38.004Z,15.90
2018-04-22T09:50:05.556Z,14.90
2018-04-22T09:52:33.113Z,14.30
2018-04-22T09:55:00.671Z,14.40
2018-04-22T09:57:28.220Z,15.20
2018-04-22T09:59:55.808Z,15.60
2018-04-22T10:02:28.948Z,14.30
2018-04-22T10:04:57.336Z,14.00
2018-04-22T10:07:25.640Z,14.50
2018-04-22T10:09:53.208Z,14.50
2018-04-22T10:12:20.770Z,15.40
2018-04-22T10:14:48.320Z,15.70
2018-04-22T10:17:15.901Z,16.20
2018-04-22T10:19:43.452Z,16.60
2018-04-22T10:22:11.008Z,15.90
2018-04-22T10:24:38.568Z,15.20
2018-04-22T10:27:06.131Z,15.50
2018-04-22T10:29:33.712Z,15.70
2018-04-22T10:32:02.029Z,15.80
2018-04-22T10:34:29.580Z,15.70
2018-04-22T10:36:57.177Z,16.70
2018-04-22T10:39:24.732Z,16.20
2018-04-22T10:41:52.336Z,15.70
2018-04-22T10:44:19.918Z,15.70
2018-04-22T10:46:47.535Z,15.00
2018-04-22T10:49:15.098Z,14.60
2018-04-22T10:51:42.661Z,15.00
2018-04-22T10:54:11.008Z,16.20
2018-04-22T10:56:38.557Z,16.20
2018-04-22T10:59:06.129Z,15.30
2018-04-22T11:01:33.685Z,14.80
2018-04-22T11:04:01.256Z,14.70
2018-04-22T11:06:29.604Z,15.10
2018-04-22T11:08:57.183Z,15.10
2018-04-22T11:11:24.740Z,15.50
2018-04-22T11:13:52.297Z,15.10
2018-04-22T11:16:20.732Z,14.60
2018-04-22T11:18:48.308Z,14.40
2018-04-22T11:21:15.933Z,14.40
2018-04-22T11:23:43.576Z,14.80
2018-04-22T11:26:11.908Z,14.80
2018-04-22T11:28:39.460Z,14.80
2018-04-22T11:31:07.033Z,14.50
2018-04-22T11:33:34.586Z,14.80
2018-04-22T11:36:02.141Z,15.20
2018-04-22T11:38:29.702Z,15.30
2018-04-22T11:40:57.259Z,15.40
2018-04-22T11:43:24.812Z,15.30
2018-04-22T11:45:52.371Z,15.10
2018-04-22T11:48:19.943Z,15.00
2018-04-22T11:50:47.504Z,15.10
2018-04-22T11:53:15.061Z,15.10
2018-04-22T11:55:42.612Z,14.70
2018-04-22T11:58:10.161Z,15.00
2018-04-22T12:00:37.740Z,15.00
2018-04-22T12:03:05.292Z,15.00
2018-04-22T12:05:32.848Z,15.20
2018-04-22T12:08:00.444Z,15.40
2018-04-22T12:10:28.002Z,14.70
2018-04-22T12:12:55.583Z,14.60
2018-04-22T12:15:23.134Z,15.20
2018-04-22T12:17:50.687Z,15.40
2018-04-22T12:20:19.048Z,15.60
2018-04-22T12:22:47.388Z,15.10
2018-04-22T12:25:14.967Z,15.00
2018-04-22T12:27:42.533Z,15.10
2018-04-22T12:30:10.154Z,15.30
2018-04-22T12:32:37.712Z,15.00
2018-04-22T12:35:06.032Z,14.50
2018-04-22T12:37:33.610Z,14.50
2018-04-22T12:40:01.171Z,14.50
2018-04-22T12:42:28.771Z,14.70
2018-04-22T12:44:56.328Z,15.00
2018-04-22T12:47:23.888Z,15.30
2018-04-22T12:49:51.461Z,15.10
2018-04-22T12:52:19.012Z,15.30
2018-04-22T12:54:46.564Z,15.60
2018-04-22T12:57:14.116Z,15.50
2018-04-22T12:59:41.665Z,15.30
2018-04-22T13:02:09.251Z,15.10
2018-04-22T13:04:36.806Z,15.00
2018-04-22T13:07:04.360Z,14.80
2018-04-22T13:09:31.930Z,14.60
2018-04-22T13:11:59.480Z,15.10
2018-04-22T13:14:27.094Z,15.60
2018-04-22T13:16:54.661Z,16.10
2018-04-22T13:19:22.221Z,15.80
2018-04-22T13:21:49.784Z,15.50
2018-04-22T13:24:17.332Z,15.40
2018-04-22T13:26:44.904Z,15.30
2018-04-22T13:29:12.462Z,15.20
2018-04-22T13:31:40.061Z,14.80
2018-04-22T13:34:07.602Z,14.80
2018-04-22T13:36:35.164Z,15.20
2018-04-22T13:39:02.918Z,15.40
2018-04-22T13:41:30.513Z,15.40
2018-04-22T13:43:58.064Z,15.40
2018-04-22T13:46:26.380Z,14.50
2018-04-22T13:48:53.937Z,14.50
2018-04-22T13:51:21.520Z,13.90
2018-04-22T13:53:49.069Z,13.80
2018-04-22T13:56:16.627Z,13.80
2018-04-22T13:58:44.367Z,13.50
2018-04-22T14:01:11.926Z,14.00
2018-04-22T14:03:39.513Z,14.00
2018-04-22T14:06:07.071Z,13.70
2018-04-22T14:08:34.628Z,13.50
2018-04-22T14:11:02.177Z,13.60
2018-04-22T14:13:29.727Z,13.40
2018-04-22T14:15:57.348Z,13.30
2018-04-22T14:18:24.896Z,13.10
2018-04-22T14:20:52.457Z,13.00
2018-04-22T14:23:20.038Z,12.70
2018-04-22T14:25:47.625Z,13.10
2018-04-22T14:28:15.204Z,12.80
2018-04-22T14:30:42.756Z,12.40
2018-04-22T14:33:10.307Z,12.20
2018-04-22T14:35:37.867Z,12.00
2018-04-22T14:38:05.463Z,12.10
2018-04-22T14:40:33.805Z,12.10
2018-04-22T14:43:01.365Z,12.10
2018-04-22T14:45:40.868Z,12.00
2018-04-22T14:48:08.420Z,11.90
2018-04-22T14:50:36.176Z,11.70
2018-04-22T14:53:03.728Z,11.70
2018-04-22T14:55:31.281Z,11.60
2018-04-22T14:57:58.866Z,11.40
2018-04-22T15:00:26.424Z,11.40
2018-04-22T15:02:53.980Z,11.70
2018-04-22T15:05:21.553Z,11.80
2018-04-22T15:07:49.103Z,11.80
2018-04-22T15:10:16.660Z,11.80
2018-04-22T15:12:44.247Z,12.00
2018-04-22T15:15:11.808Z,12.20
2018-04-22T15:17:39.380Z,12.10
2018-04-22T15:20:06.940Z,12.10
2018-04-22T15:22:35.299Z,11.80
2018-04-22T15:25:02.871Z,11.80
2018-04-22T15:27:31.270Z,11.40
2018-04-22T15:29:58.827Z,11.40
2018-04-22T15:32:26.404Z,11.50
2018-04-22T15:34:53.964Z,11.30
2018-04-22T15:37:21.521Z,11.40
2018-04-22T15:39:49.076Z,11.30
2018-04-22T15:42:16.665Z,11.20
2018-04-22T15:44:44.263Z,11.20
2018-04-22T15:47:12.584Z,11.00
2018-04-22T15:49:40.144Z,10.90
2018-04-22T15:52:07.703Z,10.90
2018-04-22T15:54:35.260Z,11.10
2018-04-22T15:57:02.840Z,11.20
2018-04-22T15:59:30.395Z,11.00
2018-04-22T16:01:57.954Z,10.90
2018-04-22T16:04:25.533Z,10.80
2018-04-22T16:06:53.094Z,10.70
2018-04-22T16:09:20.688Z,10.60
2018-04-22T16:11:48.240Z,10.60
2018-04-22T16:14:15.841Z,10.80
2018-04-22T16:16:43.378Z,10.90
2018-04-22T16:19:10.935Z,10.80
2018-04-22T16:21:38.522Z,10.70
2018-04-22T16:24:06.073Z,10.70
2018-04-22T16:26:33.628Z,10.40
2018-04-22T16:29:01.200Z,10.60
2018-04-22T16:31:28.749Z,10.40
2018-04-22T16:33:56.336Z,10.30
2018-04-22T16:36:23.884Z,10.40
2018-04-22T16:38:51.441Z,10.30
2018-04-22T16:41:18.987Z,10.10
2018-04-22T16:43:48.047Z,9.90
2018-04-22T16:46:15.620Z,9.90
2018-04-22T16:48:43.172Z,9.90
2018-04-22T16:51:10.748Z,9.90
2018-04-22T16:53:38.310Z,9.90
2018-04-22T16:56:05.864Z,10.00
2018-04-22T16:58:33.444Z,10.10
2018-04-22T17:01:00.992Z,10.00
2018-04-22T17:03:28.560Z,10.00
2018-04-22T17:05:56.203Z,9.70
2018-04-22T17:08:23.760Z,9.60
2018-04-22T17:10:51.344Z,9.70
2018-04-22T17:13:19.672Z,9.40
2018-04-22T17:15:47.216Z,9.30
2018-04-22T17:18:14.769Z,9.40
2018-04-22T17:20:42.332Z,9.40
2018-04-22T17:23:09.905Z,9.40
2018-04-22T17:25:37.547Z,9.30
2018-04-22T17:28:05.095Z,9.10
2018-04-22T17:30:32.645Z,9.00
2018-04-22T17:33:00.202Z,8.90
2018-04-22T17:35:27.789Z,9.00
2018-04-22T17:37:55.340Z,8.80
2018-04-22T17:40:22.897Z,8.70
2018-04-22T17:42:50.444Z,8.70
2018-04-22T17:45:18.021Z,8.70
2018-04-22T17:47:45.599Z,8.80
2018-04-22T17:50:13.152Z,8.70
2018-04-22T17:52:40.700Z,8.50
2018-04-22T17:55:08.255Z,8.50
2018-04-22T17:57:35.811Z,8.40
2018-04-22T18:00:03.377Z,8.40
2018-04-22T18:02:30.920Z,8.40
2018-04-22T18:04:58.478Z,8.40
2018-04-22T18:07:26.028Z,8.30
2018-04-22T18:09:53.577Z,8.40
2018-04-22T18:12:21.154Z,8.40
2018-04-22T18:14:48.701Z,8.30
2018-04-22T18:17:16.256Z,8.40
2018-04-22T18:19:43.807Z,8.40
2018-04-22T18:22:11.360Z,8.40
2018-04-22T18:24:38.960Z,8.40
2018-04-22T18:27:06.507Z,8.50
2018-04-22T18:29:34.056Z,8.40
2018-04-22T18:32:01.624Z,8.20
2018-04-22T18:34:29.184Z,8.20
2018-04-22T18:36:57.472Z,8.00
2018-04-22T18:39:25.017Z,7.90
2018-04-22T18:41:53.348Z,7.90
2018-04-22T18:44:21.676Z,7.80
2018-04-22T18:46:49.232Z,7.80
2018-04-22T18:49:16.812Z,7.70
2018-04-22T18:51:44.357Z,7.60
2018-04-22T18:54:12.684Z,7.30
2018-04-22T18:56:40.245Z,7.30
2018-04-22T18:59:07.799Z,7.20
2018-04-22T19:01:35.372Z,7.10
2018-04-22T19:04:02.920Z,7.00
2018-04-22T19:06:30.474Z,7.00
2018-04-22T19:08:58.028Z,7.00
2018-04-22T19:11:26.344Z,7.10
2018-04-22T19:13:53.916Z,7.10
2018-04-22T19:16:21.480Z,7.10
2018-04-22T19:18:49.036Z,7.10
2018-04-22T19:21:16.604Z,7.20
2018-04-22T19:23:44.160Z,7.00
2018-04-22T19:26:11.731Z,6.90
2018-04-22T19:28:39.277Z,6.90
2018-04-22T19:31:06.833Z,6.90
2018-04-22T19:33:34.393Z,6.80
2018-04-22T19:36:01.950Z,6.80
2018-04-22T19:38:29.528Z,6.70
2018-04-22T19:40:57.101Z,6.60
2018-04-22T19:43:24.661Z,6.50
2018-04-22T19:45:52.216Z,6.50
2018-04-22T19:48:19.791Z,6.60
2018-04-22T19:50:47.413Z,6.50
2018-04-22T19:53:15.040Z,6.50
2018-04-22T19:55:42.589Z,6.40
2018-04-22T19:58:10.141Z,6.40
2018-04-22T20:00:37.704Z,6.20
2018-04-22T20:03:05.277Z,6.20
2018-04-22T20:05:32.832Z,6.00
2018-04-22T20:08:00.384Z,6.00
2018-04-22T20:10:27.932Z,6.00
2018-04-22T20:12:55.495Z,5.90
2018-04-22T20:15:23.076Z,5.90
2018-04-22T20:17:50.636Z,5.80
2018-04-22T20:20:18.192Z,5.90
2018-04-22T20:22:45.756Z,5.80
2018-04-22T20:25:13.313Z,5.80
2018-04-22T20:27:41.684Z,5.90
2018-04-22T20:30:09.264Z,5.90
2018-04-22T20:32:36.842Z,5.80
2018-04-22T20:35:05.156Z,5.80
2018-04-22T20:37:32.707Z,5.80
2018-04-22T20:40:00.281Z,5.80
2018-04-22T20:42:27.902Z,5.80
2018-04-22T20:44:56.188Z,5.70
2018-04-22T20:47:23.740Z,5.70
2018-04-22T20:49:51.284Z,5.70
2018-04-22T20:52:19.664Z,5.70
2018-04-22T20:54:47.213Z,5.70
2018-04-22T20:57:14.760Z,5.70
2018-04-22T20:59:44.106Z,5.60
2018-04-22T21:02:11.653Z,5.60
2018-04-22T21:04:39.232Z,5.50
2018-04-22T21:07:06.777Z,5.40
2018-04-22T21:09:34.340Z,5.40
2018-04-22T21:12:01.900Z,5.10
2018-04-22T21:14:29.456Z,5.10
2018-04-22T21:16:57.032Z,5.10
2018-04-22T21:19:24.580Z,5.20
2018-04-22T21:21:52.129Z,5.20
2018-04-22T21:24:19.688Z,5.10
2018-04-22T21:26:48.089Z,5.10
2018-04-22T21:29:15.668Z,5.10
2018-04-22T21:31:43.223Z,5.10
2018-04-22T21:34:10.772Z,5.10
2018-04-22T21:36:38.345Z,5.10
2018-04-22T21:39:06.665Z,5.10
2018-04-22T21:41:34.212Z,5.10
2018-04-22T21:44:01.764Z,5.10
2018-04-22T21:46:29.316Z,5.10
2018-04-22T21:48:56.882Z,5.00
2018-04-22T21:51:24.445Z,5.00
2018-04-22T21:53:51.995Z,4.90
2018-04-22T21:56:19.544Z,4.90
2018-04-22T21:58:47.856Z,4.90
2018-04-22T22:01:15.400Z,4.90
2018-04-22T22:03:42.994Z,4.80
2018-04-22T22:06:10.555Z,4.80
2018-04-22T22:08:38.120Z,4.80
2018-04-22T22:11:05.676Z,4.70
2018-04-22T22:13:33.224Z,4.70
2018-04-22T22:16:00.791Z,4.70
2018-04-22T22:18:28.336Z,4.70
2018-04-22T22:20:55.879Z,4.60
2018-04-22T22:23:23.432Z,4.70
2018-04-22T22:25:50.976Z,4.70
2018-04-22T22:28:18.552Z,4.70
2018-04-22T22:30:46.102Z,4.70
2018-04-22T22:33:13.655Z,4.50
2018-04-22T22:35:41.210Z,4.40
2018-04-22T22:38:08.784Z,4.40
2018-04-22T22:40:36.365Z,4.40
2018-04-22T22:43:04.680Z,4.20
2018-04-22T22:45:32.225Z,4.20
2018-04-22T22:47:59.780Z,4.10
2018-04-22T22:50:28.100Z,4.10
2018-04-22T22:52:55.674Z,4.10
2018-04-22T22:55:23.229Z,4.10
2018-04-22T22:57:50.780Z,4.00
2018-04-22T23:00:18.377Z,4.00
2018-04-22T23:02:45.984Z,4.00
2018-04-22T23:05:13.524Z,3.90
2018-04-22T23:07:41.836Z,3.80
2018-04-22T23:10:09.392Z,3.80
2018-04-22T23:12:36.962Z,3.70
2018-04-22T23:15:04.508Z,3.60
2018-04-22T23:17:32.081Z,3.70
2018-04-22T23:19:59.644Z,3.70
2018-04-22T23:22:27.192Z,3.80
2018-04-22T23:24:54.748Z,3.90
2018-04-22T23:27:22.307Z,3.90
2018-04-22T23:29:49.884Z,3.90
2018-04-22T23:32:17.440Z,4.00
2018-04-22T23:34:44.984Z,3.90
2018-04-22T23:37:12.532Z,4.00
2018-04-22T23:39:40.089Z,3.90
2018-04-22T23:42:07.656Z,3.90
2018-04-22T23:44:35.202Z,4.00
2018-04-22T23:47:02.756Z,4.00
2018-04-22T23:49:30.316Z,4.00
2018-04-22T23:51:57.871Z,4.00
2018-04-22T23:54:25.519Z,3.90
2018-04-22T23:56:53.043Z,4.00
2018-04-22T23:59:20.596Z,3.90
